Basswood, Minnesota
Current Conditions -  °F | °C
As of 8:34 AM on Tuesday 27 Jan 2015 (Local Time) from KADC Reporting Station
Overcast Overcast  
Wind Chill: 17°   Ceiling: 500
Heat Index: 27°   Visibility: 10mi
Dew Point: 25°   Wind: 9mph
Humidity: 93%   Direction: 150°SSE
Pressure: 30.09"   Gusts: NA
Location:  46.4997°N, 95.5993°W
Report Text: KADC 271434Z AUTO 15008KT 10SM OVC005 M03/M04 A3009 RMK AO2
Loading
Personal Weather Stations






























Interactive Weather Map New forecast layout! Learn more

10-Day Weather Forecast

Advertisements
Track Severe Weather on mobile